createdAt,value
2023-03-06T00:01:01.261Z,3.04
2023-03-06T00:03:28.528Z,2.98
2023-03-06T00:05:57.473Z,2.97
2023-03-06T00:08:26.474Z,2.95
2023-03-06T00:10:54.194Z,2.89
2023-03-06T00:13:21.206Z,2.89
2023-03-06T00:15:48.847Z,2.90
2023-03-06T00:18:15.869Z,2.95
2023-03-06T00:20:44.287Z,2.94
2023-03-06T00:23:11.893Z,2.93
2023-03-06T00:25:42.537Z,2.88
2023-03-06T00:28:12.268Z,2.90
2023-03-06T00:30:39.418Z,2.90
2023-03-06T00:33:06.332Z,2.96
2023-03-06T00:35:33.423Z,2.98
2023-03-06T00:38:00.404Z,2.65
2023-03-06T00:40:27.528Z,3.03
2023-03-06T00:42:54.479Z,3.06
2023-03-06T00:45:21.365Z,3.03
2023-03-06T00:47:48.438Z,3.15
2023-03-06T00:50:15.356Z,3.08
2023-03-06T00:52:42.434Z,3.21
2023-03-06T00:55:10.568Z,3.27
2023-03-06T00:57:37.940Z,3.28
2023-03-06T01:00:07.814Z,3.39
2023-03-06T01:02:35.008Z,3.35
2023-03-06T01:05:02.266Z,3.45
2023-03-06T01:07:34.089Z,3.35
2023-03-06T01:10:00.971Z,3.43
2023-03-06T01:12:30.447Z,3.42
2023-03-06T01:14:57.509Z,3.37
2023-03-06T01:17:24.440Z,3.26
2023-03-06T01:19:51.368Z,3.38
2023-03-06T01:22:18.379Z,3.33
2023-03-06T01:24:45.273Z,3.39
2023-03-06T01:27:12.252Z,3.40
2023-03-06T01:29:39.144Z,3.40
2023-03-06T01:32:06.424Z,3.43
2023-03-06T01:34:33.392Z,3.33
2023-03-06T01:37:00.427Z,3.34
2023-03-06T01:39:28.760Z,3.46
2023-03-06T01:41:55.845Z,3.17
2023-03-06T01:44:22.682Z,3.37
2023-03-06T01:46:49.778Z,3.34
2023-03-06T01:49:35.341Z,3.23
2023-03-06T01:52:22.012Z,3.26
2023-03-06T01:54:57.782Z,3.24
2023-03-06T01:57:29.171Z,3.18
2023-03-06T02:00:02.744Z,3.09
2023-03-06T02:02:44.007Z,3.00
2023-03-06T02:05:12.090Z,3.02
2023-03-06T02:07:42.569Z,2.50
2023-03-06T02:10:14.335Z,3.02
2023-03-06T02:12:43.775Z,3.04
2023-03-06T02:15:11.726Z,3.01
2023-03-06T02:17:39.362Z,2.99
2023-03-06T02:20:17.472Z,2.96
2023-03-06T02:22:54.153Z,2.96
2023-03-06T02:25:41.653Z,2.91
2023-03-06T02:28:11.875Z,2.85
2023-03-06T02:30:42.743Z,2.77
2023-03-06T02:33:22.701Z,2.62
2023-03-06T02:36:04.668Z,2.43
2023-03-06T02:38:37.454Z,2.48
2023-03-06T02:41:08.897Z,2.46
2023-03-06T02:43:39.082Z,2.35
2023-03-06T02:46:06.951Z,2.42
2023-03-06T02:48:34.039Z,2.50
2023-03-06T02:51:00.990Z,2.38
2023-03-06T02:53:28.078Z,2.42
2023-03-06T02:55:55.223Z,2.53
2023-03-06T02:58:22.236Z,2.45
2023-03-06T03:00:50.070Z,2.61
2023-03-06T03:03:19.653Z,2.53
2023-03-06T03:05:46.741Z,2.52
2023-03-06T03:08:28.615Z,2.59
2023-03-06T03:11:00.276Z,2.57
2023-03-06T03:13:32.775Z,2.61
2023-03-06T03:16:03.622Z,2.72
2023-03-06T03:18:31.215Z,2.68
2023-03-06T03:20:58.819Z,2.70
2023-03-06T03:23:26.402Z,2.71
2023-03-06T03:26:16.417Z,2.76
2023-03-06T03:28:48.597Z,2.74
2023-03-06T03:31:18.428Z,2.78
2023-03-06T03:33:45.598Z,2.69
2023-03-06T03:36:13.271Z,2.63
2023-03-06T03:38:44.069Z,2.66
2023-03-06T03:41:11.846Z,2.62
2023-03-06T03:43:38.764Z,2.62
2023-03-06T03:46:06.216Z,2.55
2023-03-06T03:48:33.748Z,2.50
2023-03-06T03:51:12.893Z,2.44
2023-03-06T03:53:45.233Z,2.49
2023-03-06T03:56:14.799Z,2.43
2023-03-06T03:58:50.861Z,2.52
2023-03-06T04:01:18.237Z,2.49
2023-03-06T04:03:45.395Z,2.55
2023-03-06T04:06:14.939Z,2.45
2023-03-06T04:08:42.062Z,2.56
2023-03-06T04:11:09.529Z,2.55
2023-03-06T04:13:36.501Z,2.66
2023-03-06T04:16:05.166Z,2.65
2023-03-06T04:18:33.546Z,2.70
2023-03-06T04:21:04.425Z,2.77
2023-03-06T04:23:31.877Z,2.75
2023-03-06T04:25:59.069Z,2.83
2023-03-06T04:28:26.281Z,2.89
2023-03-06T04:30:53.306Z,2.96
2023-03-06T04:33:21.276Z,2.86
2023-03-06T04:35:48.614Z,2.98
2023-03-06T04:38:21.348Z,3.03
2023-03-06T04:40:49.899Z,3.08
2023-03-06T04:43:18.569Z,3.11
2023-03-06T04:45:45.504Z,3.21
2023-03-06T04:48:17.798Z,3.27
2023-03-06T04:50:44.904Z,3.31
2023-03-06T04:53:14.548Z,3.33
2023-03-06T04:55:41.646Z,3.32
2023-03-06T04:58:08.745Z,3.29
2023-03-06T05:00:35.696Z,3.39
2023-03-06T05:03:02.641Z,3.33
2023-03-06T05:05:29.951Z,3.47
2023-03-06T05:07:57.579Z,3.49
2023-03-06T05:10:24.601Z,3.49
2023-03-06T05:12:53.706Z,3.54
2023-03-06T05:15:20.678Z,3.55
2023-03-06T05:17:47.805Z,3.54
2023-03-06T05:20:15.603Z,3.48
2023-03-06T05:22:44.065Z,3.64
2023-03-06T05:25:11.187Z,3.63
2023-03-06T05:27:39.959Z,3.71
2023-03-06T05:30:08.020Z,3.70
2023-03-06T05:32:35.775Z,3.67
2023-03-06T05:35:04.011Z,3.88
2023-03-06T05:37:31.093Z,3.95
2023-03-06T05:39:58.474Z,3.92
2023-03-06T05:42:27.600Z,3.96
2023-03-06T05:44:55.357Z,3.97
2023-03-06T05:47:22.455Z,4.11
2023-03-06T05:49:49.380Z,3.67
2023-03-06T05:52:17.717Z,4.27
2023-03-06T05:54:44.966Z,4.42
2023-03-06T05:57:11.975Z,4.53
2023-03-06T05:59:39.238Z,4.62
2023-03-06T06:02:06.090Z,4.68
2023-03-06T06:04:33.028Z,4.62
2023-03-06T06:07:01.888Z,4.66
2023-03-06T06:09:29.595Z,4.60
2023-03-06T06:11:59.669Z,4.54
2023-03-06T06:14:26.617Z,4.32
2023-03-06T06:16:54.049Z,4.44
2023-03-06T06:19:22.151Z,4.52
2023-03-06T06:21:51.281Z,4.54
2023-03-06T06:24:20.575Z,4.57
2023-03-06T06:26:51.715Z,4.55
2023-03-06T06:29:18.612Z,4.51
2023-03-06T06:31:45.952Z,4.60
2023-03-06T06:34:13.841Z,4.69
2023-03-06T06:36:41.404Z,4.70
2023-03-06T06:39:16.053Z,4.48
2023-03-06T06:41:57.277Z,4.44
2023-03-06T06:44:29.461Z,4.67
2023-03-06T06:47:21.898Z,4.69
2023-03-06T06:49:43.609Z,4.62
2023-03-06T06:52:11.209Z,4.56
2023-03-06T06:54:38.249Z,4.46
2023-03-06T06:57:05.163Z,4.47
2023-03-06T06:59:32.257Z,4.45
2023-03-06T07:01:59.429Z,4.74
2023-03-06T07:04:27.073Z,4.84
2023-03-06T07:06:57.754Z,5.00
2023-03-06T07:09:25.646Z,5.06
2023-03-06T07:11:52.720Z,5.04
2023-03-06T07:14:19.845Z,4.94
2023-03-06T07:16:46.994Z,4.99
2023-03-06T07:19:14.169Z,5.15
2023-03-06T07:21:41.349Z,5.23
2023-03-06T07:24:08.623Z,5.18
2023-03-06T07:26:35.578Z,5.29
2023-03-06T07:29:04.165Z,5.28
2023-03-06T07:31:31.501Z,5.34
2023-03-06T07:33:58.448Z,5.31
2023-03-06T07:36:25.460Z,5.39
2023-03-06T07:38:52.321Z,5.59
2023-03-06T07:41:22.198Z,5.59
2023-03-06T07:43:49.876Z,5.82
2023-03-06T07:46:17.524Z,5.89
2023-03-06T07:48:44.727Z,5.98
2023-03-06T07:51:20.413Z,6.01
2023-03-06T07:53:48.637Z,5.94
2023-03-06T07:56:15.878Z,5.83
2023-03-06T07:58:44.886Z,5.89
2023-03-06T08:01:15.180Z,5.95
2023-03-06T08:03:42.770Z,6.10
2023-03-06T08:06:19.483Z,6.04
2023-03-06T08:08:47.454Z,6.42
2023-03-06T08:11:16.818Z,6.45
2023-03-06T08:13:44.019Z,6.50
2023-03-06T08:16:11.732Z,6.62
2023-03-06T08:18:40.004Z,6.70
2023-03-06T08:21:12.930Z,6.68
2023-03-06T08:23:40.728Z,6.90
2023-03-06T08:26:12.321Z,7.10
2023-03-06T08:28:40.019Z,7.05
2023-03-06T08:31:21.231Z,7.10
2023-03-06T08:33:48.170Z,6.97
2023-03-06T08:36:15.050Z,6.86
2023-03-06T08:38:42.197Z,7.14
2023-03-06T08:41:09.059Z,7.19
2023-03-06T08:43:36.303Z,7.34
2023-03-06T08:46:03.599Z,6.98
2023-03-06T08:48:30.613Z,7.12
2023-03-06T08:50:57.894Z,7.17
2023-03-06T08:53:40.334Z,7.20
2023-03-06T08:56:18.331Z,7.33
2023-03-06T08:58:46.060Z,7.59
2023-03-06T09:01:19.167Z,7.67
2023-03-06T09:03:46.462Z,7.78
2023-03-06T09:06:13.503Z,7.89
2023-03-06T09:08:43.214Z,8.01
2023-03-06T09:11:11.956Z,7.97
2023-03-06T09:13:39.311Z,8.20
2023-03-06T09:16:07.031Z,8.16
2023-03-06T09:18:33.854Z,8.26
2023-03-06T09:21:01.304Z,8.28
2023-03-06T09:23:29.371Z,8.35
2023-03-06T09:25:58.129Z,8.52
2023-03-06T09:28:25.488Z,8.59
2023-03-06T09:30:54.279Z,8.63
2023-03-06T09:33:21.798Z,8.81
2023-03-06T09:35:56.756Z,8.81
2023-03-06T09:38:27.166Z,8.88
2023-03-06T09:41:22.903Z,8.98
2023-03-06T09:43:53.379Z,9.10
2023-03-06T09:46:31.211Z,9.33
2023-03-06T09:49:34.002Z,9.33
2023-03-06T09:52:19.925Z,9.40
2023-03-06T09:54:54.549Z,9.41
2023-03-06T09:57:37.440Z,9.55
2023-03-06T10:00:13.173Z,9.53
2023-03-06T10:02:46.128Z,9.54
2023-03-06T10:05:26.997Z,9.48
2023-03-06T10:08:02.354Z,9.68
2023-03-06T10:10:48.426Z,9.89
2023-03-06T10:13:19.955Z,10.11
2023-03-06T10:15:48.158Z,10.28
2023-03-06T10:18:15.207Z,10.45
2023-03-06T10:21:17.273Z,10.93
2023-03-06T10:23:46.736Z,11.31
2023-03-06T10:26:19.588Z,11.47
2023-03-06T10:29:18.969Z,11.80
2023-03-06T10:31:56.595Z,11.85
2023-03-06T10:34:29.077Z,11.73
2023-03-06T10:37:01.545Z,12.17
2023-03-06T10:39:29.939Z,12.12
2023-03-06T10:41:56.905Z,11.64
2023-03-06T10:44:25.025Z,11.99
2023-03-06T10:46:53.977Z,12.12
2023-03-06T10:49:36.617Z,11.77
2023-03-06T10:52:06.681Z,12.20
2023-03-06T10:54:37.667Z,12.36
2023-03-06T10:57:20.702Z,12.35
2023-03-06T10:59:53.613Z,12.76
2023-03-06T11:02:27.627Z,12.84
2023-03-06T11:04:56.441Z,13.05
2023-03-06T11:07:28.787Z,13.12
2023-03-06T11:10:00.447Z,13.39
2023-03-06T11:12:33.398Z,13.31
2023-03-06T11:15:15.092Z,12.89
2023-03-06T11:17:55.563Z,12.96
2023-03-06T11:20:51.508Z,12.78
2023-03-06T11:23:29.333Z,12.68
2023-03-06T11:26:15.214Z,12.87
2023-03-06T11:28:48.549Z,11.59
2023-03-06T11:31:20.878Z,12.96
2023-03-06T11:34:06.410Z,13.27
2023-03-06T11:36:36.333Z,13.50
2023-03-06T11:39:26.464Z,13.49
2023-03-06T11:42:20.513Z,13.55
2023-03-06T11:45:07.225Z,13.15
2023-03-06T11:47:39.248Z,13.18
2023-03-06T11:50:18.888Z,13.14
2023-03-06T11:52:54.300Z,13.29
2023-03-06T11:55:50.381Z,13.64
2023-03-06T11:58:36.058Z,13.78
2023-03-06T12:01:32.393Z,13.90
2023-03-06T12:04:11.635Z,14.14
2023-03-06T12:07:12.459Z,14.00
2023-03-06T12:09:49.676Z,14.18
2023-03-06T12:12:54.247Z,14.56
2023-03-06T12:15:58.581Z,14.37
2023-03-06T12:19:04.188Z,13.91
2023-03-06T12:21:45.728Z,14.04
2023-03-06T12:24:27.672Z,14.31
2023-03-06T12:27:12.978Z,14.09
2023-03-06T12:29:46.354Z,14.31
2023-03-06T12:32:27.787Z,14.67
2023-03-06T12:35:05.958Z,14.82
2023-03-06T12:37:54.965Z,14.80
2023-03-06T12:40:39.616Z,14.58
2023-03-06T12:43:25.169Z,14.71
2023-03-06T12:46:01.320Z,14.45
2023-03-06T12:48:34.959Z,14.15
2023-03-06T12:51:03.981Z,14.11
2023-03-06T12:53:33.044Z,14.01
2023-03-06T12:56:01.692Z,14.17
2023-03-06T12:58:28.701Z,14.31
2023-03-06T13:01:06.149Z,14.35
2023-03-06T13:03:52.174Z,14.49
2023-03-06T13:06:51.209Z,14.63
2023-03-06T13:09:20.265Z,14.38
2023-03-06T13:12:16.335Z,14.23
2023-03-06T13:14:53.840Z,14.18
2023-03-06T13:17:21.424Z,14.12
2023-03-06T13:19:49.218Z,13.95
2023-03-06T13:22:30.001Z,13.96
2023-03-06T13:25:18.953Z,14.00
2023-03-06T13:28:00.326Z,14.07
2023-03-06T13:30:39.483Z,14.14
2023-03-06T13:33:27.521Z,14.27
2023-03-06T13:36:14.134Z,14.31
2023-03-06T13:38:40.873Z,14.32
2023-03-06T13:41:23.084Z,14.36
2023-03-06T13:43:52.692Z,14.51
2023-03-06T13:46:37.811Z,14.75
2023-03-06T13:49:07.793Z,14.82
2023-03-06T13:51:52.079Z,14.60
2023-03-06T13:54:41.029Z,14.74
2023-03-06T13:57:39.889Z,14.72
2023-03-06T14:00:34.267Z,14.61
2023-03-06T14:03:01.147Z,14.74
2023-03-06T14:05:46.059Z,14.71
2023-03-06T14:08:13.169Z,14.70
2023-03-06T14:10:40.711Z,14.61
2023-03-06T14:13:20.109Z,14.42
2023-03-06T14:15:52.826Z,14.48
2023-03-06T14:18:28.001Z,14.61
2023-03-06T14:21:01.073Z,14.81
2023-03-06T14:23:35.337Z,14.94
2023-03-06T14:26:08.952Z,14.99
2023-03-06T14:28:37.449Z,14.91
2023-03-06T14:31:06.241Z,14.81
2023-03-06T14:33:39.111Z,14.68
2023-03-06T14:36:10.386Z,14.67
2023-03-06T14:38:44.198Z,14.51
2023-03-06T14:41:13.048Z,14.48
2023-03-06T14:43:41.072Z,14.33
2023-03-06T14:46:20.086Z,14.34
2023-03-06T14:48:47.960Z,14.27
2023-03-06T14:51:21.182Z,14.20
2023-03-06T14:53:50.344Z,14.18
2023-03-06T14:56:23.437Z,14.09
2023-03-06T14:58:50.629Z,14.03
2023-03-06T15:01:26.084Z,13.97
2023-03-06T15:03:57.506Z,14.04
2023-03-06T15:06:29.805Z,13.89
2023-03-06T15:09:16.645Z,13.76
2023-03-06T15:12:03.990Z,13.64
2023-03-06T15:14:42.425Z,13.27
2023-03-06T15:17:18.469Z,13.18
2023-03-06T15:19:48.585Z,12.75
2023-03-06T15:22:27.753Z,12.90
2023-03-06T15:25:14.347Z,12.68
2023-03-06T15:27:47.213Z,12.68
2023-03-06T15:30:26.471Z,12.64
2023-03-06T15:33:22.242Z,12.34
2023-03-06T15:36:01.902Z,12.41
2023-03-06T15:38:32.406Z,12.54
2023-03-06T15:41:01.824Z,12.53
2023-03-06T15:43:34.745Z,12.49
2023-03-06T15:46:02.155Z,12.39
2023-03-06T15:48:29.170Z,12.35
2023-03-06T15:50:56.436Z,12.33
2023-03-06T15:53:23.757Z,12.22
2023-03-06T15:55:52.220Z,12.15
2023-03-06T15:58:23.507Z,12.09
2023-03-06T16:00:51.261Z,12.01
2023-03-06T16:03:18.837Z,11.99
2023-03-06T16:05:45.843Z,11.78
2023-03-06T16:08:14.931Z,11.84
2023-03-06T16:10:44.704Z,11.91
2023-03-06T16:13:16.430Z,11.69
2023-03-06T16:15:49.384Z,11.79
2023-03-06T16:18:16.831Z,11.59
2023-03-06T16:20:43.987Z,11.54
2023-03-06T16:23:11.052Z,11.23
2023-03-06T16:25:45.860Z,11.28
2023-03-06T16:28:16.463Z,11.19
2023-03-06T16:30:44.675Z,11.02
2023-03-06T16:33:12.964Z,10.97
2023-03-06T16:35:41.275Z,10.93
2023-03-06T16:38:10.567Z,10.87
2023-03-06T16:40:41.191Z,10.81
2023-03-06T16:43:09.706Z,10.79
2023-03-06T16:45:39.293Z,10.85
2023-03-06T16:48:07.461Z,10.86
2023-03-06T16:50:38.902Z,10.83
2023-03-06T16:53:06.442Z,10.87
2023-03-06T16:55:34.908Z,10.92
2023-03-06T16:58:03.223Z,10.84
2023-03-06T17:00:32.110Z,10.91
2023-03-06T17:03:00.800Z,10.89
2023-03-06T17:05:28.924Z,10.95
2023-03-06T17:07:56.571Z,10.81
2023-03-06T17:10:26.324Z,10.91
2023-03-06T17:12:55.225Z,10.85
2023-03-06T17:15:22.341Z,10.71
2023-03-06T17:17:51.646Z,10.68
2023-03-06T17:20:19.672Z,10.75
2023-03-06T17:22:46.693Z,10.74
2023-03-06T17:25:13.689Z,10.67
2023-03-06T17:27:41.041Z,10.62
2023-03-06T17:30:08.585Z,10.61
2023-03-06T17:32:37.586Z,10.35
2023-03-06T17:35:05.227Z,10.31
2023-03-06T17:37:32.419Z,10.26
2023-03-06T17:39:59.407Z,10.18
2023-03-06T17:42:26.406Z,10.21
2023-03-06T17:44:53.365Z,10.08
2023-03-06T17:47:20.410Z,10.04
2023-03-06T17:49:47.425Z,9.97
2023-03-06T17:52:14.409Z,9.87
2023-03-06T17:54:41.459Z,9.85
2023-03-06T17:57:08.532Z,9.32
2023-03-06T17:59:35.501Z,9.80
2023-03-06T18:02:02.760Z,9.72
2023-03-06T18:04:29.944Z,9.71
2023-03-06T18:06:58.301Z,9.69
2023-03-06T18:09:25.494Z,9.60
2023-03-06T18:11:52.438Z,9.58
2023-03-06T18:14:19.445Z,9.55
2023-03-06T18:16:46.765Z,9.57
2023-03-06T18:19:14.357Z,9.45
2023-03-06T18:21:41.468Z,9.52
2023-03-06T18:24:09.405Z,9.47
2023-03-06T18:26:36.512Z,9.45
2023-03-06T18:29:04.754Z,9.58
2023-03-06T18:31:37.295Z,9.55
2023-03-06T18:34:07.409Z,9.53
2023-03-06T18:36:35.737Z,9.49
2023-03-06T18:39:05.310Z,9.55
2023-03-06T18:41:32.926Z,9.56
2023-03-06T18:44:01.489Z,9.65
2023-03-06T18:46:34.756Z,9.74
2023-03-06T18:49:02.256Z,9.77
2023-03-06T18:51:29.318Z,9.82
2023-03-06T18:53:58.196Z,9.80
2023-03-06T18:56:25.398Z,9.86
2023-03-06T18:58:53.548Z,9.78
2023-03-06T19:01:22.553Z,9.88
2023-03-06T19:03:49.885Z,9.91
2023-03-06T19:06:17.646Z,9.98
2023-03-06T19:08:45.244Z,10.08
2023-03-06T19:11:14.726Z,10.04
2023-03-06T19:13:41.943Z,10.05
2023-03-06T19:16:16.026Z,10.06
2023-03-06T19:18:43.117Z,10.16
2023-03-06T19:21:15.038Z,10.17
2023-03-06T19:23:42.706Z,10.09
2023-03-06T19:26:11.521Z,9.92
2023-03-06T19:28:40.824Z,9.93
2023-03-06T19:31:14.401Z,9.84
2023-03-06T19:33:42.704Z,9.81
2023-03-06T19:36:12.010Z,9.83
2023-03-06T19:38:39.001Z,9.80
2023-03-06T19:41:06.322Z,9.68
2023-03-06T19:43:33.225Z,9.80
2023-03-06T19:46:00.895Z,9.84
2023-03-06T19:48:27.844Z,9.81
2023-03-06T19:50:54.987Z,9.84
2023-03-06T19:53:23.064Z,9.87
2023-03-06T19:55:50.142Z,9.89
2023-03-06T19:58:17.436Z,9.89
2023-03-06T20:00:44.377Z,9.97
2023-03-06T20:03:11.480Z,9.90
2023-03-06T20:05:46.080Z,9.97
2023-03-06T20:08:13.469Z,9.73
2023-03-06T20:10:40.306Z,9.57
2023-03-06T20:13:07.467Z,9.41
2023-03-06T20:15:35.170Z,9.24
2023-03-06T20:18:02.287Z,9.22
2023-03-06T20:20:29.128Z,9.16
2023-03-06T20:22:56.231Z,9.05
2023-03-06T20:25:23.132Z,8.99
2023-03-06T20:27:50.497Z,8.97
2023-03-06T20:30:17.813Z,8.77
2023-03-06T20:32:44.747Z,8.68
2023-03-06T20:35:11.877Z,8.52
2023-03-06T20:37:40.773Z,8.47
2023-03-06T20:40:08.619Z,8.40
2023-03-06T20:42:35.874Z,8.27
2023-03-06T20:45:02.957Z,8.26
2023-03-06T20:47:31.092Z,8.05
2023-03-06T20:49:57.923Z,7.76
2023-03-06T20:52:24.978Z,7.92
2023-03-06T20:54:51.811Z,7.87
2023-03-06T20:57:18.692Z,7.81
2023-03-06T20:59:45.650Z,7.70
2023-03-06T21:02:15.137Z,7.65
2023-03-06T21:04:42.366Z,7.56
2023-03-06T21:07:09.333Z,7.49
2023-03-06T21:09:37.914Z,7.46
2023-03-06T21:12:05.401Z,7.44
2023-03-06T21:14:32.401Z,7.26
2023-03-06T21:17:01.271Z,7.42
2023-03-06T21:19:28.157Z,6.97
2023-03-06T21:21:55.125Z,7.27
2023-03-06T21:24:22.498Z,7.22
2023-03-06T21:26:51.188Z,7.20
2023-03-06T21:29:18.399Z,6.97
2023-03-06T21:31:45.469Z,7.07
2023-03-06T21:34:12.608Z,7.18
2023-03-06T21:36:39.635Z,7.12
2023-03-06T21:39:06.791Z,7.19
2023-03-06T21:41:34.057Z,7.20
2023-03-06T21:44:03.455Z,7.23
2023-03-06T21:46:31.208Z,7.04
2023-03-06T21:48:58.840Z,7.29
2023-03-06T21:51:26.439Z,7.36
2023-03-06T21:53:54.330Z,7.14
2023-03-06T21:56:25.000Z,7.59
2023-03-06T21:58:52.299Z,7.56
2023-03-06T22:01:25.952Z,7.66
2023-03-06T22:03:53.521Z,7.66
2023-03-06T22:06:25.507Z,7.51
2023-03-06T22:08:58.580Z,7.58
2023-03-06T22:11:27.509Z,7.68
2023-03-06T22:13:54.546Z,7.74
2023-03-06T22:16:21.811Z,7.80
2023-03-06T22:18:52.155Z,7.80
2023-03-06T22:21:22.300Z,7.59
2023-03-06T22:23:51.586Z,7.80
2023-03-06T22:26:19.063Z,7.54
2023-03-06T22:28:46.280Z,7.85
2023-03-06T22:31:15.026Z,7.91
2023-03-06T22:33:42.103Z,7.85
2023-03-06T22:36:12.456Z,7.94
2023-03-06T22:38:41.543Z,7.99
2023-03-06T22:41:09.896Z,8.02
2023-03-06T22:43:37.386Z,8.03
2023-03-06T22:46:16.136Z,7.94
2023-03-06T22:48:43.995Z,8.03
2023-03-06T22:51:13.839Z,7.99
2023-03-06T22:53:41.295Z,7.98
2023-03-06T22:56:11.213Z,7.97
2023-03-06T22:58:38.602Z,7.98
2023-03-06T23:01:06.357Z,7.89
2023-03-06T23:03:33.322Z,7.91
2023-03-06T23:06:00.170Z,8.04
2023-03-06T23:08:27.023Z,8.03
2023-03-06T23:10:53.918Z,7.80
2023-03-06T23:13:39.162Z,7.87
2023-03-06T23:16:25.577Z,7.97
2023-03-06T23:19:11.673Z,7.92
2023-03-06T23:21:57.126Z,7.94
2023-03-06T23:24:42.871Z,8.01
2023-03-06T23:27:09.916Z,8.06
2023-03-06T23:29:36.964Z,8.01
2023-03-06T23:32:05.460Z,7.72
2023-03-06T23:34:32.510Z,7.81
2023-03-06T23:36:59.390Z,7.69
2023-03-06T23:39:26.685Z,7.64
2023-03-06T23:41:53.499Z,7.59
2023-03-06T23:44:20.728Z,7.56
2023-03-06T23:46:47.614Z,7.51
2023-03-06T23:49:14.627Z,7.50
2023-03-06T23:51:41.442Z,7.51
2023-03-06T23:54:09.970Z,7.49
2023-03-06T23:56:36.942Z,7.41
2023-03-06T23:59:04.201Z,7.34
